Time;durP1;ratioP1;P1;durP2;ratioP2;P2;SDS_P1;SDS_P2;PMS_P1;PMS_P2;Temp;Humidity;BMP_temperature;BMP_pressure;BME280_temperature;BME280_humidity;BME280_pressure;Samples;Min_cycle;Max_cycle;Signal;HPM_P1;HPM_P2
2022/10/07 00:01:56;;;;;;;0.10;0.10;;;8.90;99.90;;;;;;5038101;28;20184;-80
2022/10/07 00:04:21;;;;;;;0.10;0.10;;;8.70;99.90;;;;;;5037383;28;20556;-79
2022/10/07 00:06:47;;;;;;;0.10;0.10;;;8.70;99.90;;;;;;5036745;28;20189;-80
2022/10/07 00:09:13;;;;;;;0.10;0.10;;;8.60;99.90;;;;;;5037468;28;20209;-80
2022/10/07 00:11:39;;;;;;;0.07;0.07;;;8.60;99.90;;;;;;5036493;28;20273;-79
2022/10/07 00:14:08;;;;;;;0.10;0.10;;;8.60;99.90;;;;;;5038082;28;20638;-80
2022/10/07 00:16:39;;;;;;;0.10;0.10;;;8.40;99.90;;;;;;5036571;28;20243;-80
2022/10/07 00:19:08;;;;;;;0.10;0.10;;;8.40;99.90;;;;;;5036948;28;20225;-80
2022/10/07 00:21:35;;;;;;;0.10;0.10;;;8.50;99.90;;;;;;5037653;28;20193;-79
2022/10/07 00:24:01;;;;;;;0.10;0.10;;;8.60;99.90;;;;;;5035275;28;20190;-80
2022/10/07 00:26:29;;;;;;;0.10;0.10;;;8.60;99.90;;;;;;5035757;28;20645;-80
2022/10/07 00:28:56;;;;;;;0.10;0.10;;;8.70;99.90;;;;;;5035590;28;20286;-80
2022/10/07 00:31:24;;;;;;;0.10;0.10;;;8.70;99.90;;;;;;5037116;28;20243;-80
2022/10/07 00:33:51;;;;;;;0.00;0.00;;;8.60;99.90;;;;;;5036030;28;20182;-80
2022/10/07 00:36:22;;;;;;;0.00;0.00;;;8.60;99.90;;;;;;5035632;28;20273;-79
2022/10/07 00:38:56;;;;;;;0.10;0.10;;;8.60;99.90;;;;;;5034971;28;20207;-80
2022/10/07 00:41:28;;;;;;;0.10;0.10;;;8.70;99.90;;;;;;5036628;28;20179;-79
2022/10/07 00:43:54;;;;;;;0.10;0.10;;;8.60;99.90;;;;;;5035367;28;20170;-80
2022/10/07 00:46:23;;;;;;;0.10;0.10;;;8.60;99.90;;;;;;5034905;28;20192;-80
2022/10/07 00:48:48;;;;;;;0.10;0.10;;;8.50;99.90;;;;;;5033887;28;20204;-80
2022/10/07 00:51:15;;;;;;;0.10;0.10;;;8.50;99.90;;;;;;5034980;28;20200;-79
2022/10/07 00:53:45;;;;;;;0.10;0.10;;;8.60;99.90;;;;;;5034519;28;20279;-80
2022/10/07 00:56:11;;;;;;;0.10;0.10;;;8.50;99.90;;;;;;5035312;28;20182;-80
2022/10/07 00:58:40;;;;;;;0.10;0.10;;;8.50;99.90;;;;;;5034648;28;20277;-80
2022/10/07 01:01:06;;;;;;;0.10;0.10;;;8.50;99.90;;;;;;5036538;28;20171;-80
2022/10/07 01:03:34;;;;;;;0.10;0.10;;;8.50;99.90;;;;;;5034218;28;20186;-80
2022/10/07 01:06:02;;;;;;;0.10;0.10;;;8.40;99.90;;;;;;5036168;28;20543;-80
2022/10/07 01:08:27;;;;;;;0.00;0.00;;;8.40;99.90;;;;;;5034272;28;20197;-80
2022/10/07 01:11:15;;;;;;;0.10;0.10;;;8.30;99.90;;;;;;5033397;28;20694;-80
2022/10/07 01:13:47;;;;;;;0.10;0.10;;;8.30;99.90;;;;;;5035112;28;20578;-80
2022/10/07 01:16:28;;;;;;;0.10;0.10;;;8.30;99.90;;;;;;5033526;28;20230;-80
2022/10/07 01:19:21;;;;;;;0.07;0.07;;;8.30;99.90;;;;;;5033028;28;20226;-80
2022/10/07 01:21:58;;;;;;;0.00;0.00;;;8.20;99.90;;;;;;5032567;28;20182;-79
2022/10/07 01:24:32;;;;;;;0.10;0.10;;;8.20;99.90;;;;;;5032542;28;20181;-80
2022/10/07 01:27:02;;;;;;;0.00;0.00;;;8.20;99.90;;;;;;5033292;28;20168;-80
2022/10/07 01:29:42;;;;;;;0.00;0.00;;;8.30;99.90;;;;;;5033207;28;20207;-79
2022/10/07 01:32:18;;;;;;;0.00;0.00;;;8.30;99.90;;;;;;5033712;28;20577;-80
2022/10/07 01:34:45;;;;;;;0.00;0.00;;;8.30;99.90;;;;;;5033335;28;20159;-80
2022/10/07 01:37:15;;;;;;;0.10;0.10;;;8.30;99.90;;;;;;5034195;28;20173;-79
2022/10/07 01:39:47;;;;;;;0.10;0.10;;;8.30;99.90;;;;;;5032465;28;20280;-79
2022/10/07 01:42:13;;;;;;;0.00;0.00;;;8.30;99.90;;;;;;5032207;28;20177;-80
2022/10/07 01:44:40;;;;;;;0.00;0.00;;;8.20;99.90;;;;;;5032624;28;20530;-80
2022/10/07 01:47:06;;;;;;;0.10;0.10;;;8.10;99.90;;;;;;5032334;28;20247;-80
2022/10/07 01:49:31;;;;;;;0.10;0.10;;;8.10;99.90;;;;;;5031675;28;20321;-79
2022/10/07 01:52:07;;;;;;;0.10;0.10;;;8.00;99.90;;;;;;5032040;28;20277;-80
2022/10/07 01:54:39;;;;;;;0.10;0.10;;;8.00;99.90;;;;;;5032865;28;20185;-80
2022/10/07 01:57:28;;;;;;;0.00;0.00;;;7.90;99.90;;;;;;5033630;28;20620;-79
2022/10/07 02:00:11;;;;;;;0.10;0.10;;;8.00;99.90;;;;;;5032848;28;20170;-80
2022/10/07 02:02:58;;;;;;;0.10;0.10;;;8.00;99.90;;;;;;5032002;28;20183;-80
2022/10/07 02:05:42;;;;;;;0.10;0.10;;;8.00;99.90;;;;;;5032782;28;20203;-80
2022/10/07 02:08:19;;;;;;;0.10;0.10;;;8.00;99.90;;;;;;5031933;28;20199;-81
2022/10/07 02:11:22;;;;;;;0.10;0.10;;;8.00;99.90;;;;;;5032195;28;20221;-81
2022/10/07 02:13:54;;;;;;;0.00;0.00;;;8.00;99.90;;;;;;5032071;28;20175;-80
2022/10/07 02:16:50;;;;;;;0.10;0.10;;;8.10;99.90;;;;;;5032134;28;20181;-80
2022/10/07 02:19:22;;;;;;;0.10;0.10;;;8.10;99.90;;;;;;5033017;28;20254;-79
2022/10/07 02:21:50;;;;;;;0.10;0.10;;;8.10;99.90;;;;;;5031979;28;20185;-80
2022/10/07 02:24:19;;;;;;;0.00;0.00;;;8.20;99.90;;;;;;5033159;28;20172;-79
2022/10/07 02:26:46;;;;;;;0.10;0.10;;;8.30;99.90;;;;;;5032701;28;20178;-80
2022/10/07 02:29:14;;;;;;;0.10;0.10;;;8.30;99.90;;;;;;5032884;28;20256;-79
2022/10/07 02:31:43;;;;;;;0.00;0.00;;;8.20;99.90;;;;;;5033392;28;20640;-80
2022/10/07 02:34:13;;;;;;;0.00;0.00;;;8.20;99.90;;;;;;5033378;28;20241;-80
2022/10/07 02:36:44;;;;;;;0.00;0.00;;;8.20;99.90;;;;;;5033376;28;20182;-80
2022/10/07 02:39:11;;;;;;;0.10;0.10;;;8.20;99.90;;;;;;5031597;28;20706;-80
2022/10/07 02:41:54;;;;;;;0.00;0.00;;;8.20;99.90;;;;;;5031038;28;20182;-79
2022/10/07 02:44:36;;;;;;;0.10;0.10;;;8.20;99.90;;;;;;5031453;28;20196;-79
2022/10/07 02:47:18;;;;;;;0.00;0.00;;;8.20;99.90;;;;;;5031193;28;20179;-80
2022/10/07 02:49:48;;;;;;;0.10;0.10;;;8.10;99.90;;;;;;5031184;28;20200;-79
2022/10/07 02:52:17;;;;;;;0.00;0.00;;;8.00;99.90;;;;;;5030992;28;20191;-80
2022/10/07 02:54:55;;;;;;;0.10;0.10;;;8.00;99.90;;;;;;5032682;28;20184;-79
2022/10/07 02:57:23;;;;;;;0.10;0.10;;;8.00;99.90;;;;;;5031461;28;20269;-80
2022/10/07 02:59:50;;;;;;;0.10;0.10;;;8.10;99.90;;;;;;5032506;28;20176;-80
2022/10/07 03:02:23;;;;;;;0.10;0.10;;;8.10;99.90;;;;;;5031482;28;20187;-80
2022/10/07 03:04:48;;;;;;;0.10;0.10;;;8.10;99.90;;;;;;5031446;28;20223;-79
2022/10/07 03:07:14;;;;;;;0.10;0.10;;;8.00;99.90;;;;;;5030334;28;20175;-79
2022/10/07 03:09:41;;;;;;;0.10;0.10;;;8.00;99.90;;;;;;5031926;28;20209;-80
2022/10/07 03:12:07;;;;;;;0.10;0.10;;;8.00;99.90;;;;;;5030588;28;20522;-79
2022/10/07 03:14:34;;;;;;;0.00;0.00;;;7.80;99.90;;;;;;5031233;28;20183;-80
2022/10/07 03:17:00;;;;;;;0.10;0.10;;;7.60;99.90;;;;;;5032114;28;20703;-80
2022/10/07 03:19:26;;;;;;;0.10;0.10;;;7.40;99.90;;;;;;5032588;28;20180;-80
2022/10/07 03:21:53;;;;;;;0.00;0.00;;;7.50;99.90;;;;;;5031052;28;20181;-80
2022/10/07 03:24:19;;;;;;;0.00;0.00;;;7.50;99.90;;;;;;5031344;28;20568;-80
2022/10/07 03:26:44;;;;;;;0.10;0.10;;;7.50;99.90;;;;;;5031064;28;20181;-80
2022/10/07 03:29:10;;;;;;;0.10;0.10;;;7.40;99.90;;;;;;5030613;28;20437;-80
2022/10/07 03:31:36;;;;;;;0.10;0.10;;;7.50;99.90;;;;;;5030512;28;20175;-79
2022/10/07 03:34:01;;;;;;;0.10;0.10;;;7.30;99.90;;;;;;5031164;28;20181;-80
2022/10/07 03:36:28;;;;;;;0.10;0.10;;;7.30;99.90;;;;;;5031480;28;20183;-79
2022/10/07 03:38:54;;;;;;;0.10;0.10;;;7.30;99.90;;;;;;5030921;28;20201;-80
2022/10/07 03:41:20;;;;;;;0.00;0.00;;;7.40;99.90;;;;;;5032491;28;20168;-80
2022/10/07 03:43:46;;;;;;;0.10;0.10;;;7.40;99.90;;;;;;5030888;28;20549;-79
2022/10/07 03:46:12;;;;;;;0.10;0.10;;;7.50;99.90;;;;;;5030775;28;20189;-80
2022/10/07 03:48:38;;;;;;;0.10;0.10;;;7.50;99.90;;;;;;5032142;28;20728;-80
2022/10/07 03:51:03;;;;;;;0.10;0.10;;;7.70;99.90;;;;;;5031989;28;20195;-79
2022/10/07 03:53:29;;;;;;;0.10;0.10;;;7.70;99.90;;;;;;5030570;28;20186;-80
2022/10/07 03:55:55;;;;;;;0.10;0.10;;;7.70;99.90;;;;;;5030783;28;20183;-79
2022/10/07 03:58:21;;;;;;;0.10;0.10;;;7.70;99.90;;;;;;5031177;28;20199;-79
2022/10/07 04:00:47;;;;;;;0.00;0.00;;;7.70;99.90;;;;;;5030514;28;20212;-80
2022/10/07 04:03:14;;;;;;;0.10;0.10;;;7.60;99.90;;;;;;5030804;28;20660;-80
2022/10/07 04:05:40;;;;;;;0.10;0.10;;;7.60;99.90;;;;;;5029922;28;20181;-80
2022/10/07 04:08:06;;;;;;;0.10;0.10;;;7.60;99.90;;;;;;5029842;28;20206;-80
2022/10/07 04:10:32;;;;;;;0.10;0.10;;;7.60;99.90;;;;;;5030591;28;20265;-79
2022/10/07 04:12:58;;;;;;;0.10;0.10;;;7.70;99.90;;;;;;5031898;28;20178;-80
2022/10/07 04:15:24;;;;;;;0.10;0.10;;;7.70;99.90;;;;;;5031699;28;20730;-80
2022/10/07 04:17:57;;;;;;;0.10;0.10;;;7.60;99.90;;;;;;5031457;28;20196;-80
2022/10/07 04:20:23;;;;;;;0.00;0.00;;;7.60;99.90;;;;;;5031192;28;20542;-80
2022/10/07 04:22:48;;;;;;;0.10;0.10;;;7.60;99.90;;;;;;5033353;28;20184;-79
2022/10/07 04:25:32;;;;;;;0.00;0.00;;;7.70;99.90;;;;;;5034019;28;20534;-80
2022/10/07 04:27:59;;;;;;;0.10;0.10;;;7.60;99.90;;;;;;5033754;28;20209;-80
2022/10/07 04:30:26;;;;;;;0.10;0.10;;;7.60;99.90;;;;;;5034194;28;20657;-80
2022/10/07 04:32:52;;;;;;;0.00;0.00;;;7.60;99.90;;;;;;5034231;28;20576;-79
2022/10/07 04:35:19;;;;;;;0.10;0.10;;;7.60;99.90;;;;;;5033892;28;20185;-80
2022/10/07 04:37:47;;;;;;;0.10;0.10;;;7.60;99.90;;;;;;5033635;28;20208;-80
2022/10/07 04:40:14;;;;;;;0.00;0.00;;;7.50;99.90;;;;;;5033785;28;20186;-80
2022/10/07 04:45:24;;;;;;;0.10;0.10;;;7.50;99.90;;;;;;5035620;28;20171;-80
2022/10/07 04:47:50;;;;;;;0.10;0.10;;;7.50;99.90;;;;;;5033578;28;20559;-80
2022/10/07 04:50:15;;;;;;;0.10;0.10;;;7.50;99.90;;;;;;5033372;28;20214;-80
2022/10/07 04:52:42;;;;;;;0.00;0.00;;;7.40;99.90;;;;;;5034012;28;20171;-80
2022/10/07 04:55:11;;;;;;;0.10;0.10;;;7.40;99.90;;;;;;5033887;28;20184;-80
2022/10/07 04:57:37;;;;;;;0.00;0.00;;;7.40;99.90;;;;;;5033220;28;20207;-80
2022/10/07 05:00:04;;;;;;;0.10;0.10;;;7.40;99.90;;;;;;5033293;28;20183;-80
2022/10/07 05:02:30;;;;;;;0.10;0.10;;;7.50;99.90;;;;;;5033013;28;20179;-79
2022/10/07 05:04:55;;;;;;;0.00;0.00;;;7.60;99.90;;;;;;5034954;28;20226;-80
2022/10/07 05:07:21;;;;;;;0.10;0.10;;;7.60;99.90;;;;;;5033655;28;20702;-80
2022/10/07 05:09:47;;;;;;;0.10;0.10;;;7.70;99.90;;;;;;5033069;28;20227;-80
2022/10/07 05:12:16;;;;;;;0.00;0.00;;;7.80;99.90;;;;;;5033225;28;20178;-79
2022/10/07 05:14:42;;;;;;;0.00;0.00;;;7.80;99.90;;;;;;5033324;28;20172;-79
2022/10/07 05:17:07;;;;;;;0.00;0.00;;;7.80;99.90;;;;;;5033518;28;20172;-80
2022/10/07 05:19:34;;;;;;;0.00;0.00;;;7.80;99.90;;;;;;5033338;28;20539;-80
2022/10/07 05:21:59;;;;;;;0.00;0.00;;;7.70;99.90;;;;;;5033458;28;20298;-80
2022/10/07 05:24:25;;;;;;;0.10;0.10;;;7.60;99.90;;;;;;5032245;28;20767;-80
2022/10/07 05:26:50;;;;;;;0.10;0.10;;;7.70;99.90;;;;;;5032909;28;20272;-80
2022/10/07 05:29:16;;;;;;;0.00;0.00;;;7.60;99.90;;;;;;5032121;28;20602;-80
2022/10/07 05:31:41;;;;;;;0.10;0.10;;;7.60;99.90;;;;;;5033196;28;20226;-80
2022/10/07 05:34:07;;;;;;;0.00;0.00;;;7.60;99.90;;;;;;5033676;28;20182;-79
2022/10/07 05:36:33;;;;;;;0.00;0.00;;;7.60;99.90;;;;;;5036450;28;20202;-79
2022/10/07 05:38:59;;;;;;;0.00;0.00;;;7.60;99.90;;;;;;5033353;28;20688;-79
2022/10/07 05:41:27;;;;;;;0.00;0.00;;;7.70;99.90;;;;;;5033109;28;20273;-79
2022/10/07 05:43:53;;;;;;;0.03;0.03;;;7.70;99.90;;;;;;5034120;28;20171;-79
2022/10/07 05:46:22;;;;;;;0.10;0.10;;;7.80;99.90;;;;;;5032523;28;20710;-79
2022/10/07 05:48:52;;;;;;;0.00;0.00;;;7.70;99.90;;;;;;5033518;28;20274;-79
2022/10/07 05:51:19;;;;;;;0.10;0.10;;;7.70;99.90;;;;;;5032731;28;20248;-80
2022/10/07 05:53:45;;;;;;;0.10;0.10;;;7.60;99.90;;;;;;5032520;28;20216;-79
2022/10/07 05:56:15;;;;;;;0.00;0.00;;;7.60;99.90;;;;;;5033933;28;20181;-80
2022/10/07 05:58:41;;;;;;;0.10;0.10;;;7.60;99.90;;;;;;5032445;28;20718;-79
2022/10/07 06:01:13;;;;;;;0.00;0.00;;;7.70;99.90;;;;;;5032521;28;20201;-80
2022/10/07 06:03:39;;;;;;;0.00;0.00;;;7.70;99.90;;;;;;5032628;28;20163;-79
2022/10/07 06:06:04;;;;;;;0.10;0.10;;;7.70;99.90;;;;;;5032303;28;20194;-79
2022/10/07 06:08:30;;;;;;;0.10;0.10;;;7.80;99.90;;;;;;5031988;28;20205;-79
2022/10/07 06:13:53;;;;;;;0.10;0.10;;;7.70;99.90;;;;;;5036448;28;20190;-79
2022/10/07 06:16:19;;;;;;;0.00;0.00;;;7.80;99.90;;;;;;5040969;28;20178;-79
2022/10/07 06:18:45;;;;;;;0.10;0.10;;;7.90;99.90;;;;;;5042757;28;20225;-79
2022/10/07 06:21:11;;;;;;;0.10;0.10;;;8.00;99.90;;;;;;5043559;28;20182;-79
2022/10/07 06:23:37;;;;;;;0.07;0.07;;;8.10;99.90;;;;;;5043617;28;20230;-79
2022/10/07 06:26:05;;;;;;;0.00;0.00;;;8.20;99.90;;;;;;5041514;28;20182;-79
2022/10/07 06:28:36;;;;;;;0.10;0.10;;;8.20;99.90;;;;;;5036155;28;20198;-79
2022/10/07 06:31:07;;;;;;;0.00;0.00;;;8.30;99.90;;;;;;5034812;28;20210;-79
2022/10/07 06:33:33;;;;;;;0.10;0.10;;;8.30;99.90;;;;;;5034408;28;20547;-79
2022/10/07 06:36:08;;;;;;;0.10;0.10;;;8.40;99.90;;;;;;5034363;28;20197;-78
2022/10/07 06:38:33;;;;;;;0.10;0.10;;;8.50;99.90;;;;;;5034378;28;20194;-79
2022/10/07 06:41:00;;;;;;;0.10;0.10;;;8.60;99.90;;;;;;5035256;28;20182;-79
2022/10/07 06:43:30;;;;;;;0.10;0.10;;;8.60;99.90;;;;;;5034306;28;20199;-78
2022/10/07 06:46:01;;;;;;;0.10;0.10;;;8.70;99.90;;;;;;5032577;28;20181;-79
2022/10/07 06:48:28;;;;;;;0.00;0.00;;;8.70;99.90;;;;;;5034101;28;20203;-79
2022/10/07 06:50:54;;;;;;;0.10;0.10;;;8.70;99.90;;;;;;5034919;28;20245;-79
2022/10/07 06:53:21;;;;;;;0.10;0.10;;;8.80;99.90;;;;;;5034267;28;20659;-79
2022/10/07 06:55:50;;;;;;;0.00;0.00;;;8.80;99.90;;;;;;5034330;28;20520;-79
2022/10/07 06:58:16;;;;;;;0.00;0.00;;;8.90;99.90;;;;;;5032600;28;20198;-78
2022/10/07 07:00:42;;;;;;;0.10;0.10;;;9.10;99.90;;;;;;5032512;28;20217;-79
2022/10/07 07:03:09;;;;;;;0.10;0.10;;;9.00;99.90;;;;;;5033223;28;20179;-80
2022/10/07 07:05:37;;;;;;;0.10;0.10;;;9.10;99.90;;;;;;5033099;28;20750;-79
2022/10/07 07:08:03;;;;;;;0.00;0.00;;;9.20;99.90;;;;;;5033046;28;20289;-79
2022/10/07 07:10:28;;;;;;;0.10;0.10;;;9.40;99.90;;;;;;5033277;28;20229;-80
2022/10/07 07:12:54;;;;;;;0.03;0.03;;;9.50;99.90;;;;;;5033559;28;20201;-79
2022/10/07 07:15:20;;;;;;;0.10;0.10;;;9.60;99.90;;;;;;5033189;28;20183;-79
2022/10/07 07:17:46;;;;;;;0.00;0.00;;;9.70;99.90;;;;;;5033260;28;20292;-79
2022/10/07 07:20:13;;;;;;;0.10;0.10;;;9.70;99.90;;;;;;5034777;28;20206;-79
2022/10/07 07:22:38;;;;;;;0.10;0.10;;;9.90;99.90;;;;;;5033466;28;20179;-79
2022/10/07 07:25:04;;;;;;;0.07;0.07;;;10.00;99.90;;;;;;5032916;28;20230;-79
2022/10/07 07:27:30;;;;;;;0.10;0.10;;;10.10;99.90;;;;;;5033621;28;20199;-79
2022/10/07 07:29:57;;;;;;;0.00;0.00;;;10.10;99.90;;;;;;5032394;28;20659;-79
2022/10/07 07:32:23;;;;;;;0.00;0.00;;;10.10;99.90;;;;;;5032516;28;20828;-78
2022/10/07 07:34:48;;;;;;;0.03;0.03;;;10.10;99.90;;;;;;5033030;28;20171;-79
2022/10/07 07:37:16;;;;;;;0.10;0.10;;;10.30;99.90;;;;;;5032862;28;20172;-79
2022/10/07 07:39:41;;;;;;;0.10;0.10;;;10.40;99.90;;;;;;5032604;28;20187;-79
2022/10/07 07:42:07;;;;;;;0.10;0.10;;;10.50;99.90;;;;;;5033406;28;20582;-79
2022/10/07 07:44:35;;;;;;;0.10;0.10;;;10.50;99.90;;;;;;5034081;28;20791;-79
2022/10/07 07:47:01;;;;;;;0.10;0.10;;;10.60;99.90;;;;;;5034314;28;20189;-79
2022/10/07 07:49:30;;;;;;;0.00;0.00;;;10.60;99.90;;;;;;5032311;28;20735;-79
2022/10/07 07:51:56;;;;;;;0.00;0.00;;;10.70;99.90;;;;;;5032205;28;20188;-79
2022/10/07 07:54:23;;;;;;;0.10;0.10;;;10.70;99.90;;;;;;5032592;28;20191;-80
2022/10/07 07:56:49;;;;;;;0.10;0.10;;;10.80;99.90;;;;;;5033829;28;20174;-80
2022/10/07 07:59:15;;;;;;;0.10;0.10;;;11.00;99.90;;;;;;5037239;28;20565;-79
2022/10/07 08:01:43;;;;;;;0.10;0.10;;;11.10;99.90;;;;;;5035939;28;20237;-79
2022/10/07 08:04:08;;;;;;;0.10;0.10;;;11.20;99.90;;;;;;5036060;28;20183;-79
2022/10/07 08:06:34;;;;;;;0.10;0.10;;;11.40;99.90;;;;;;5037135;28;20188;-80
2022/10/07 08:08:59;;;;;;;0.10;0.10;;;11.60;99.90;;;;;;5036499;28;20207;-80
2022/10/07 08:11:26;;;;;;;0.03;0.03;;;11.70;99.90;;;;;;5037868;28;20251;-79
2022/10/07 08:13:54;;;;;;;0.10;0.10;;;11.90;99.90;;;;;;5035294;28;20192;-79
2022/10/07 08:16:22;;;;;;;0.00;0.00;;;12.00;99.90;;;;;;5035954;28;20231;-79
2022/10/07 08:18:49;;;;;;;0.10;0.10;;;12.20;99.90;;;;;;5035955;28;20198;-79
2022/10/07 08:21:17;;;;;;;0.10;0.10;;;12.30;99.90;;;;;;5035365;28;20605;-80
2022/10/07 08:23:43;;;;;;;0.10;0.10;;;12.50;99.90;;;;;;5037127;28;20186;-79
2022/10/07 08:26:09;;;;;;;0.00;0.00;;;12.70;99.90;;;;;;5034453;28;20178;-79
2022/10/07 08:28:36;;;;;;;0.10;0.10;;;12.80;99.90;;;;;;5035522;28;20718;-79
2022/10/07 08:31:04;;;;;;;0.00;0.00;;;12.90;99.90;;;;;;5035397;28;20204;-79
2022/10/07 08:33:33;;;;;;;0.00;0.00;;;12.90;99.90;;;;;;5035502;28;20174;-79
2022/10/07 08:36:00;;;;;;;0.03;0.03;;;13.00;99.90;;;;;;5036500;28;20175;-79
2022/10/07 08:38:37;;;;;;;0.10;0.10;;;13.10;99.90;;;;;;5035149;28;20266;-80
2022/10/07 08:41:22;;;;;;;0.00;0.00;;;13.20;99.90;;;;;;5035284;28;20246;-79
2022/10/07 08:43:49;;;;;;;0.10;0.10;;;13.20;99.90;;;;;;5036660;28;20182;-79
2022/10/07 08:46:27;;;;;;;0.10;0.10;;;13.30;99.90;;;;;;5035421;28;20213;-80
2022/10/07 08:49:12;;;;;;;0.10;0.10;;;13.40;99.90;;;;;;5034853;28;20332;-80
2022/10/07 08:51:57;;;;;;;0.10;0.10;;;13.60;99.90;;;;;;5035144;28;20565;-80
2022/10/07 08:54:29;;;;;;;0.10;0.10;;;13.50;99.90;;;;;;5035735;28;20163;-80
2022/10/07 08:57:03;;;;;;;0.00;0.00;;;13.50;99.90;;;;;;5036859;28;20220;-80
2022/10/07 08:59:34;;;;;;;0.10;0.10;;;13.60;99.90;;;;;;5034913;28;20170;-80
2022/10/07 09:02:21;;;;;;;0.00;0.00;;;13.80;99.90;;;;;;5035733;28;20162;-80
2022/10/07 09:04:56;;;;;;;0.10;0.10;;;14.00;99.90;;;;;;5035117;28;20167;-79
2022/10/07 09:07:31;;;;;;;0.10;0.10;;;13.90;99.90;;;;;;5036209;28;20687;-80
2022/10/07 09:10:02;;;;;;;0.10;0.10;;;14.00;99.90;;;;;;5034229;28;20186;-79
2022/10/07 09:12:43;;;;;;;0.07;0.07;;;14.20;99.90;;;;;;5034516;28;20191;-80
2022/10/07 09:15:31;;;;;;;0.00;0.00;;;14.40;99.90;;;;;;5034817;28;20170;-79
2022/10/07 09:18:02;;;;;;;0.10;0.10;;;14.50;99.90;;;;;;5036190;28;20558;-80
2022/10/07 09:20:34;;;;;;;0.10;0.10;;;14.60;99.90;;;;;;5036168;28;20651;-80
2022/10/07 09:23:03;;;;;;;0.10;0.10;;;14.80;99.90;;;;;;5035557;28;20209;-79
2022/10/07 09:25:30;;;;;;;0.00;0.00;;;15.00;99.90;;;;;;5034436;28;20664;-79
2022/10/07 09:27:56;;;;;;;0.10;0.10;;;15.00;99.90;;;;;;5033856;28;20224;-79
2022/10/07 09:30:24;;;;;;;0.10;0.10;;;15.20;99.90;;;;;;5033986;28;20714;-79
2022/10/07 09:32:54;;;;;;;0.10;0.10;;;15.30;99.90;;;;;;5033868;28;20177;-79
2022/10/07 09:35:22;;;;;;;0.10;0.10;;;15.50;99.90;;;;;;5035300;28;20209;-79
2022/10/07 09:37:56;;;;;;;0.10;0.10;;;15.50;99.90;;;;;;5034087;28;20680;-80
2022/10/07 09:40:32;;;;;;;0.10;0.10;;;15.90;99.90;;;;;;5033508;28;20185;-79
2022/10/07 09:42:59;;;;;;;0.10;0.10;;;16.10;99.90;;;;;;5034630;28;20176;-80
2022/10/07 09:45:30;;;;;;;0.10;0.10;;;16.30;99.90;;;;;;5034360;28;20181;-80
2022/10/07 09:48:03;;;;;;;0.10;0.10;;;16.40;99.90;;;;;;5033643;28;20212;-80
2022/10/07 09:50:40;;;;;;;0.10;0.10;;;16.60;99.90;;;;;;5034380;28;20217;-80
2022/10/07 09:53:32;;;;;;;0.10;0.10;;;16.70;99.90;;;;;;5037745;28;20231;-80
2022/10/07 09:55:57;;;;;;;0.10;0.10;;;17.00;99.90;;;;;;5034435;28;20166;-80
2022/10/07 09:58:29;;;;;;;0.10;0.10;;;17.00;99.90;;;;;;5035410;28;20268;-79
2022/10/07 10:01:00;;;;;;;0.10;0.10;;;17.30;99.90;;;;;;5033783;28;20236;-80
2022/10/07 10:03:31;;;;;;;0.10;0.10;;;17.50;99.90;;;;;;5033895;28;20178;-80
2022/10/07 10:06:05;;;;;;;0.10;0.10;;;17.70;99.90;;;;;;5034653;28;20174;-79
2022/10/07 10:08:35;;;;;;;0.10;0.10;;;17.70;99.90;;;;;;5033447;28;20990;-79
2022/10/07 10:11:03;;;;;;;0.10;0.10;;;17.70;99.90;;;;;;5034588;28;20217;-80
2022/10/07 10:13:37;;;;;;;0.10;0.10;;;17.70;99.90;;;;;;5033996;28;20785;-79
2022/10/07 10:16:05;;;;;;;0.10;0.10;;;17.80;99.90;;;;;;5033908;28;20159;-80
2022/10/07 10:18:52;;;;;;;0.10;0.10;;;17.70;99.90;;;;;;5033689;28;20205;-80
2022/10/07 10:21:26;;;;;;;0.10;0.10;;;18.00;99.90;;;;;;5034643;28;20174;-80
2022/10/07 10:23:55;;;;;;;0.10;0.10;;;17.80;99.90;;;;;;5034286;28;20864;-80
2022/10/07 10:26:30;;;;;;;0.10;0.10;;;18.00;99.90;;;;;;5035426;28;20226;-80
2022/10/07 10:29:20;;;;;;;0.10;0.10;;;18.30;99.90;;;;;;5032710;28;20320;-80
2022/10/07 10:32:07;;;;;;;0.10;0.10;;;18.30;99.90;;;;;;5034677;28;20166;-79
2022/10/07 10:34:47;;;;;;;0.10;0.10;;;18.60;99.90;;;;;;5034004;28;20175;-80
2022/10/07 10:37:19;;;;;;;0.07;0.07;;;18.50;99.90;;;;;;5033034;28;20555;-80
2022/10/07 10:40:02;;;;;;;0.10;0.10;;;18.70;99.90;;;;;;5032709;28;20188;-80
2022/10/07 10:42:47;;;;;;;0.10;0.10;;;18.50;99.90;;;;;;5034412;28;20180;-80
2022/10/07 10:45:24;;;;;;;0.10;0.10;;;18.10;99.90;;;;;;5033738;28;20254;-80
2022/10/07 10:48:01;;;;;;;0.10;0.10;;;18.20;99.90;;;;;;5033397;28;20202;-80
2022/10/07 10:50:54;;;;;;;0.10;0.10;;;18.40;99.90;;;;;;5033773;28;20301;-80
2022/10/07 10:53:46;;;;;;;0.10;0.10;;;18.40;99.90;;;;;;5035916;28;20194;-80
2022/10/07 10:56:25;;;;;;;0.10;0.10;;;18.60;99.90;;;;;;5033298;28;20174;-80
2022/10/07 10:58:56;;;;;;;0.10;0.10;;;18.40;99.90;;;;;;5034598;28;20202;-80
2022/10/07 11:01:39;;;;;;;0.10;0.10;;;18.70;99.90;;;;;;5033598;28;20182;-80
2022/10/07 11:04:37;;;;;;;0.10;0.10;;;18.80;99.90;;;;;;5035019;28;20262;-80
2022/10/07 11:07:28;;;;;;;0.10;0.10;;;19.00;99.90;;;;;;5034729;28;20177;-80
2022/10/07 11:09:59;;;;;;;0.10;0.10;;;19.10;99.90;;;;;;5033626;28;20206;-83
2022/10/07 11:12:38;;;;;;;0.10;0.10;;;19.30;99.90;;;;;;5034599;28;20171;-82
2022/10/07 11:15:17;;;;;;;0.10;0.10;;;19.30;99.90;;;;;;5035161;28;20159;-80
2022/10/07 11:17:45;;;;;;;0.10;0.10;;;19.40;99.90;;;;;;5033437;28;20194;-81
2022/10/07 11:20:31;;;;;;;0.10;0.10;;;19.50;99.90;;;;;;5036800;28;20848;-81
2022/10/07 11:23:12;;;;;;;0.10;0.10;;;19.50;99.90;;;;;;5035266;28;20209;-82
2022/10/07 11:25:56;;;;;;;0.10;0.10;;;19.50;99.90;;;;;;5035408;28;20170;-83
2022/10/07 11:28:28;;;;;;;0.10;0.10;;;19.70;99.90;;;;;;5033688;28;20276;-80
2022/10/07 11:31:07;;;;;;;0.10;0.10;;;19.80;99.90;;;;;;5034748;28;20702;-81
2022/10/07 11:33:43;;;;;;;0.10;0.10;;;19.80;99.90;;;;;;5039339;28;20176;-83
2022/10/07 11:36:16;;;;;;;0.10;0.10;;;19.90;99.90;;;;;;5038484;28;20567;-80
2022/10/07 11:38:42;;;;;;;0.10;0.10;;;20.00;99.90;;;;;;5040063;28;20190;-81
2022/10/07 11:41:24;;;;;;;0.10;0.10;;;19.90;99.90;;;;;;5038461;28;20691;-82
2022/10/07 11:43:55;;;;;;;0.10;0.10;;;19.90;99.90;;;;;;5039210;28;20173;-81
2022/10/07 11:46:35;;;;;;;0.10;0.10;;;19.90;99.90;;;;;;5038800;28;20231;-81
2022/10/07 11:49:10;;;;;;;0.10;0.10;;;19.90;99.90;;;;;;5039804;28;20467;-81
2022/10/07 11:51:40;;;;;;;0.10;0.10;;;19.80;99.90;;;;;;5039101;28;20238;-81
2022/10/07 11:54:10;;;;;;;0.10;0.10;;;19.90;99.90;;;;;;5038855;28;20181;-81
2022/10/07 11:56:59;;;;;;;0.10;0.10;;;19.90;99.90;;;;;;5038206;28;20246;-80
2022/10/07 11:59:49;;;;;;;0.10;0.10;;;19.90;99.90;;;;;;5037552;28;20198;-81
2022/10/07 12:02:27;;;;;;;0.10;0.10;;;19.90;99.90;;;;;;5039888;28;20694;-81
2022/10/07 12:04:53;;;;;;;0.10;0.10;;;19.80;99.90;;;;;;5037210;28;20174;-81
2022/10/07 12:07:34;;;;;;;0.10;0.10;;;19.80;99.90;;;;;;5039349;28;20179;-81
2022/10/07 12:10:00;;;;;;;0.10;0.10;;;19.80;99.90;;;;;;5038308;28;20205;-82
2022/10/07 12:12:46;;;;;;;0.10;0.10;;;19.80;99.90;;;;;;5038088;28;20229;-81
2022/10/07 12:15:32;;;;;;;0.10;0.10;;;19.80;99.90;;;;;;5038811;28;20697;-82
2022/10/07 12:18:04;;;;;;;0.10;0.10;;;19.80;99.90;;;;;;5039389;28;20199;-81
2022/10/07 12:20:33;;;;;;;0.10;0.10;;;19.80;99.90;;;;;;5039076;28;20183;-82
2022/10/07 12:23:17;;;;;;;0.10;0.10;;;19.80;99.90;;;;;;5041000;28;20539;-82
2022/10/07 12:26:04;;;;;;;0.10;0.10;;;20.00;99.90;;;;;;5040753;28;20174;-81
2022/10/07 12:28:41;;;;;;;0.10;0.10;;;20.00;99.90;;;;;;5040780;28;20687;-82
2022/10/07 12:31:15;;;;;;;0.10;0.10;;;19.90;99.90;;;;;;5041033;28;20200;-81
2022/10/07 12:33:44;;;;;;;0.10;0.10;;;20.20;99.90;;;;;;5040541;28;20269;-81
2022/10/07 12:36:22;;;;;;;0.10;0.10;;;20.50;99.90;;;;;;5039316;28;20385;-81
2022/10/07 12:38:57;;;;;;;0.10;0.10;;;20.60;99.90;;;;;;5040496;28;20197;-81
2022/10/07 12:41:34;;;;;;;0.10;0.10;;;20.70;99.90;;;;;;5038089;28;20181;-82
2022/10/07 12:44:32;;;;;;;0.10;0.10;;;20.60;99.90;;;;;;5038045;28;20224;-82
2022/10/07 12:47:09;;;;;;;0.10;0.10;;;20.40;99.90;;;;;;5040047;28;20527;-81
2022/10/07 12:49:47;;;;;;;0.10;0.10;;;20.50;99.90;;;;;;5038913;28;20205;-81
2022/10/07 12:52:43;;;;;;;0.10;0.10;;;20.60;99.90;;;;;;5037571;28;20186;-81
2022/10/07 12:55:15;;;;;;;0.10;0.10;;;20.70;99.90;;;;;;5040170;28;20170;-81
2022/10/07 12:57:47;;;;;;;0.10;0.10;;;20.80;99.90;;;;;;5036115;28;20229;-82
2022/10/07 13:00:23;;;;;;;0.10;0.10;;;20.90;99.90;;;;;;5040064;28;20173;-81
2022/10/07 13:03:22;;;;;;;0.10;0.10;;;20.90;99.90;;;;;;5037180;28;20174;-81
2022/10/07 13:06:14;;;;;;;0.10;0.10;;;21.00;99.90;;;;;;5038942;28;20656;-81
2022/10/07 13:09:01;;;;;;;0.10;0.10;;;21.00;99.90;;;;;;5037471;28;20293;-81
2022/10/07 13:11:40;;;;;;;0.10;0.10;;;21.00;99.90;;;;;;5038679;28;20186;-81
2022/10/07 13:14:18;;;;;;;0.10;0.10;;;21.10;99.90;;;;;;5038075;28;20166;-82
2022/10/07 13:17:07;;;;;;;0.10;0.10;;;21.10;99.90;;;;;;5039594;28;20162;-81
2022/10/07 13:20:17;;;;;;;0.10;0.10;;;20.90;99.90;;;;;;5039369;28;20181;-81
2022/10/07 13:22:47;;;;;;;0.10;0.10;;;20.70;99.90;;;;;;5043813;28;20198;-81